createdAt,value
2022-10-30T00:00:05.784Z,102.82
2022-10-30T00:00:50.735Z,113.72
2022-10-30T00:01:35.761Z,93.83
2022-10-30T00:02:20.885Z,79.81
2022-10-30T00:03:05.889Z,107.81
2022-10-30T00:03:51.184Z,104.82
2022-10-30T00:04:36.725Z,155.73
2022-10-30T00:05:21.069Z,130.77
2022-10-30T00:06:06.130Z,94.83
2022-10-30T00:06:51.082Z,78.86
2022-10-30T00:07:36.072Z,86.85
2022-10-30T00:08:21.497Z,100.71
2022-10-30T00:09:06.554Z,62.89
2022-10-30T00:09:51.553Z,61.89
2022-10-30T00:10:36.103Z,86.85
2022-10-30T00:11:21.633Z,75.87
2022-10-30T00:12:06.371Z,102.82
2022-10-30T00:12:51.836Z,75.78
2022-10-30T00:13:36.485Z,66.88
2022-10-30T00:14:21.744Z,59.83
2022-10-30T00:15:06.801Z,68.88
2022-10-30T00:15:51.660Z,56.90
2022-10-30T00:16:36.646Z,148.74
2022-10-30T00:17:21.974Z,157.55
2022-10-30T00:18:07.242Z,132.77
2022-10-30T00:18:52.289Z,71.85
2022-10-30T00:19:36.940Z,83.83
2022-10-30T00:20:22.016Z,136.76
2022-10-30T00:21:07.157Z,133.76
2022-10-30T00:21:52.027Z,138.76
2022-10-30T00:22:37.163Z,119.79
2022-10-30T00:23:22.058Z,131.77
2022-10-30T00:24:07.277Z,143.75
2022-10-30T00:24:52.442Z,162.71
2022-10-30T00:25:37.490Z,156.72
2022-10-30T00:26:22.463Z,139.75
2022-10-30T00:27:07.497Z,154.73
2022-10-30T00:27:52.453Z,146.74
2022-10-30T00:28:38.030Z,162.71
2022-10-30T00:29:23.609Z,156.55
2022-10-30T00:30:08.006Z,156.55
2022-10-30T00:30:52.578Z,136.76
2022-10-30T00:31:37.840Z,140.75
2022-10-30T00:32:22.923Z,166.71
2022-10-30T00:33:07.851Z,166.71
2022-10-30T00:33:52.904Z,123.78
2022-10-30T00:34:37.965Z,123.78
2022-10-30T00:35:23.219Z,152.73
2022-10-30T00:36:07.979Z,130.77
2022-10-30T00:36:52.943Z,157.72
2022-10-30T00:37:38.195Z,159.61
2022-10-30T00:38:23.447Z,138.66
2022-10-30T00:39:08.637Z,138.66
2022-10-30T00:39:53.362Z,142.75
2022-10-30T00:40:38.322Z,275.52
2022-10-30T00:41:23.284Z,409.28
2022-10-30T00:42:08.732Z,409.28
2022-10-30T00:42:53.819Z,273.33
2022-10-30T00:43:38.534Z,309.25
2022-10-30T00:44:23.592Z,266.53
2022-10-30T00:45:09.096Z,266.53
2022-10-30T00:45:53.913Z,243.57
2022-10-30T00:46:38.967Z,247.56
2022-10-30T00:47:24.048Z,264.53
2022-10-30T00:48:08.779Z,218.62
2022-10-30T00:48:53.832Z,251.56
2022-10-30T00:49:39.635Z,251.56
2022-10-30T00:50:24.300Z,209.63
2022-10-30T00:51:09.206Z,214.62
2022-10-30T00:51:54.159Z,238.58
2022-10-30T00:52:39.416Z,217.62
2022-10-30T00:53:24.395Z,258.55
2022-10-30T00:54:09.401Z,208.63
2022-10-30T00:54:54.387Z,251.28
2022-10-30T00:55:39.547Z,258.46
2022-10-30T00:56:24.599Z,229.52
2022-10-30T00:57:09.792Z,141.71
2022-10-30T00:57:54.520Z,177.63
2022-10-30T00:58:40.070Z,162.66
2022-10-30T00:59:24.439Z,158.67
2022-10-30T01:00:09.465Z,186.61
2022-10-30T01:00:55.068Z,388.20
2022-10-30T01:01:39.624Z,240.50
2022-10-30T01:02:25.234Z,240.50
2022-10-30T01:03:09.795Z,100.79
2022-10-30T01:03:54.958Z,93.64
2022-10-30T01:04:39.808Z,79.83
2022-10-30T01:05:24.749Z,79.83
2022-10-30T01:06:10.133Z,88.82
2022-10-30T01:06:55.324Z,88.82
2022-10-30T01:07:40.242Z,128.73
2022-10-30T01:08:25.684Z,80.83
2022-10-30T01:09:10.223Z,77.84
2022-10-30T01:09:55.196Z,90.81
2022-10-30T01:10:40.364Z,70.85
2022-10-30T01:11:25.986Z,60.87
2022-10-30T01:12:10.375Z,78.84
2022-10-30T01:12:55.431Z,60.87
2022-10-30T01:13:40.620Z,64.87
2022-10-30T01:14:25.876Z,60.87
2022-10-30T01:15:10.841Z,73.71
2022-10-30T01:15:55.755Z,80.83
2022-10-30T01:16:41.427Z,86.66
2022-10-30T01:17:25.852Z,59.88
2022-10-30T01:18:10.924Z,88.82
2022-10-30T01:18:55.982Z,76.84
2022-10-30T01:19:41.257Z,113.56
2022-10-30T01:20:26.017Z,72.85
2022-10-30T01:21:11.200Z,113.76
2022-10-30T01:21:56.290Z,101.79
2022-10-30T01:22:41.288Z,91.81
2022-10-30T01:23:26.424Z,80.83
2022-10-30T01:24:11.480Z,71.85
2022-10-30T01:24:56.567Z,67.86
2022-10-30T01:25:41.387Z,77.84
2022-10-30T01:26:26.490Z,76.84
2022-10-30T01:27:11.911Z,61.87
2022-10-30T01:27:56.659Z,61.87
2022-10-30T01:28:41.721Z,89.81
2022-10-30T01:29:26.819Z,72.85
2022-10-30T01:30:11.832Z,68.86
2022-10-30T01:30:57.053Z,80.83
2022-10-30T01:31:41.851Z,74.84
2022-10-30T01:32:27.155Z,112.77
2022-10-30T01:33:11.593Z,95.80
2022-10-30T01:33:56.715Z,99.79
2022-10-30T01:35:27.636Z,66.84
2022-10-30T01:36:12.381Z,75.84
2022-10-30T01:36:57.544Z,61.87
2022-10-30T01:37:42.616Z,71.85
2022-10-30T01:38:27.480Z,119.75
2022-10-30T01:39:12.442Z,93.81
2022-10-30T01:39:57.459Z,60.87
2022-10-30T01:40:42.644Z,52.89
2022-10-30T01:41:27.790Z,62.87
2022-10-30T01:42:13.357Z,65.86
2022-10-30T01:42:57.794Z,74.79
2022-10-30T01:43:42.747Z,55.88
2022-10-30T01:44:27.702Z,55.88
2022-10-30T01:45:13.069Z,103.82
2022-10-30T01:45:57.799Z,112.77
2022-10-30T01:46:42.872Z,125.74
2022-10-30T01:47:28.338Z,154.68
2022-10-30T01:48:12.926Z,159.67
2022-10-30T01:48:58.036Z,147.69
2022-10-30T01:49:43.171Z,162.66
2022-10-30T01:50:28.655Z,154.40
2022-10-30T01:51:13.513Z,129.68
2022-10-30T01:51:58.574Z,46.89
2022-10-30T01:52:43.424Z,39.92
2022-10-30T01:53:28.576Z,41.88
2022-10-30T01:54:13.359Z,39.92
2022-10-30T01:54:58.797Z,35.86
2022-10-30T01:55:43.716Z,91.81
2022-10-30T01:56:28.913Z,178.63
2022-10-30T01:57:13.761Z,187.61
2022-10-30T01:57:58.611Z,182.62
2022-10-30T01:58:43.765Z,224.45
2022-10-30T01:59:29.237Z,302.83
2022-10-30T02:00:13.881Z,357.13
2022-10-30T02:00:59.190Z,327.20
2022-10-30T02:01:44.239Z,363.12
2022-10-30T02:02:29.316Z,362.59
2022-10-30T02:03:14.015Z,329.32
2022-10-30T02:03:59.310Z,330.32
2022-10-30T02:04:44.116Z,365.11
2022-10-30T02:05:29.589Z,341.17
2022-10-30T02:06:14.336Z,389.05
2022-10-30T02:06:59.393Z,343.67
2022-10-30T02:07:44.756Z,412.00
2022-10-30T02:08:29.655Z,414.14
2022-10-30T02:09:14.666Z,419.13
2022-10-30T02:09:59.624Z,375.22
2022-10-30T02:10:44.676Z,364.24
2022-10-30T02:11:29.835Z,364.24
2022-10-30T02:12:14.883Z,321.33
2022-10-30T02:12:59.739Z,340.17
2022-10-30T02:13:45.105Z,344.16
2022-10-30T02:14:30.160Z,353.63
2022-10-30T02:15:15.217Z,349.15
2022-10-30T02:16:00.064Z,339.17
2022-10-30T02:16:45.130Z,423.97
2022-10-30T02:17:30.510Z,374.09
2022-10-30T02:18:15.236Z,429.95
2022-10-30T02:19:00.640Z,359.26
2022-10-30T02:19:45.447Z,416.14
2022-10-30T02:20:30.818Z,384.20
2022-10-30T02:21:15.341Z,364.96
2022-10-30T02:22:00.653Z,372.23
2022-10-30T02:22:45.424Z,401.17
2022-10-30T02:23:30.730Z,395.18
2022-10-30T02:24:15.592Z,414.39
2022-10-30T02:25:00.849Z,405.16
2022-10-30T02:25:45.906Z,392.88
2022-10-30T02:26:30.815Z,367.24
2022-10-30T02:27:15.910Z,350.27
2022-10-30T02:28:00.768Z,362.25
2022-10-30T02:28:45.822Z,411.41
2022-10-30T02:29:31.235Z,364.24
2022-10-30T02:30:16.241Z,362.59
2022-10-30T02:31:00.992Z,391.19
2022-10-30T02:31:46.117Z,403.16
2022-10-30T02:32:31.305Z,412.15
2022-10-30T02:34:01.225Z,391.19
2022-10-30T02:34:46.477Z,414.39
2022-10-30T02:35:31.637Z,384.20
2022-10-30T02:36:16.467Z,379.21
2022-10-30T02:37:01.447Z,391.19
2022-10-30T02:37:47.021Z,372.23
2022-10-30T02:38:31.865Z,412.15
2022-10-30T02:39:16.716Z,331.31
2022-10-30T02:40:01.870Z,373.23
2022-10-30T02:40:46.728Z,373.23
2022-10-30T02:41:31.984Z,432.10
2022-10-30T02:42:16.947Z,368.24
2022-10-30T02:43:02.046Z,377.22
2022-10-30T02:43:47.366Z,339.30
2022-10-30T02:44:32.720Z,356.62
2022-10-30T02:45:17.270Z,341.29
2022-10-30T02:46:02.218Z,368.24
2022-10-30T02:46:47.969Z,356.26
2022-10-30T02:47:32.294Z,375.22
2022-10-30T02:48:17.491Z,357.26
2022-10-30T02:49:02.161Z,360.25
2022-10-30T02:49:47.506Z,329.32
2022-10-30T02:50:33.241Z,327.32
2022-10-30T02:51:17.306Z,357.26
2022-10-30T02:52:02.778Z,376.22
2022-10-30T02:52:47.743Z,341.68
2022-10-30T02:53:32.679Z,362.25
2022-10-30T02:54:17.537Z,379.53
2022-10-30T02:55:02.592Z,349.28
2022-10-30T02:55:48.056Z,321.75
2022-10-30T02:56:33.213Z,383.21
2022-10-30T02:57:17.982Z,337.30
2022-10-30T02:58:03.122Z,359.26
2022-10-30T02:58:47.881Z,355.26
2022-10-30T02:59:33.060Z,376.22
2022-10-30T03:00:17.780Z,350.27
2022-10-30T03:01:02.872Z,349.28
2022-10-30T03:01:48.207Z,334.31
2022-10-30T03:02:33.063Z,342.29
2022-10-30T03:03:21.401Z,364.24
2022-10-30T03:04:03.140Z,374.22
2022-10-30T03:04:48.346Z,333.31
2022-10-30T03:05:33.635Z,358.26
2022-10-30T03:06:18.185Z,364.24
2022-10-30T03:07:03.395Z,365.24
2022-10-30T03:07:48.456Z,332.31
2022-10-30T03:08:33.714Z,401.17
2022-10-30T03:09:18.454Z,345.28
2022-10-30T03:10:03.740Z,385.20
2022-10-30T03:10:48.776Z,337.30
2022-10-30T03:11:33.832Z,379.21
2022-10-30T03:12:18.772Z,350.27
2022-10-30T03:13:03.850Z,369.23
2022-10-30T03:13:49.059Z,334.31
2022-10-30T03:14:34.171Z,377.22
2022-10-30T03:15:19.577Z,393.18
2022-10-30T03:16:03.966Z,385.20
2022-10-30T03:16:49.224Z,376.08
2022-10-30T03:17:34.273Z,390.05
2022-10-30T03:18:19.244Z,410.00
2022-10-30T03:19:04.352Z,322.22
2022-10-30T03:19:49.376Z,377.08
2022-10-30T03:20:34.409Z,366.95
2022-10-30T03:21:19.984Z,397.87
2022-10-30T03:22:04.895Z,384.99
2022-10-30T03:22:49.745Z,381.91
2022-10-30T03:23:34.761Z,408.87
2022-10-30T03:24:19.894Z,458.69
2022-10-30T03:25:04.811Z,395.87
2022-10-30T03:25:49.907Z,410.83
2022-10-30T03:26:34.953Z,455.70
2022-10-30T03:27:19.916Z,376.93
2022-10-30T03:28:04.970Z,407.84
2022-10-30T03:28:50.296Z,386.90
2022-10-30T03:29:35.205Z,449.72
2022-10-30T03:30:20.126Z,410.41
2022-10-30T03:31:05.301Z,407.42
2022-10-30T03:31:50.257Z,421.37
2022-10-30T03:32:35.218Z,445.27
2022-10-30T03:33:20.397Z,412.40
2022-10-30T03:34:05.524Z,419.37
2022-10-30T03:34:50.503Z,451.25
2022-10-30T03:35:35.452Z,427.34
2022-10-30T03:36:20.490Z,410.41
2022-10-30T03:37:05.850Z,395.47
2022-10-30T03:37:50.811Z,409.41
2022-10-30T03:38:35.764Z,397.46
2022-10-30T03:39:20.595Z,405.43
2022-10-30T03:40:05.773Z,412.40
2022-10-30T03:40:50.831Z,454.24
2022-10-30T03:41:35.885Z,426.35
2022-10-30T03:42:20.895Z,393.47
2022-10-30T03:43:06.200Z,426.35
2022-10-30T03:43:51.156Z,452.25
2022-10-30T03:44:36.216Z,450.25
2022-10-30T03:45:21.069Z,413.40
2022-10-30T03:46:06.424Z,433.32
2022-10-30T03:46:51.621Z,440.29
2022-10-30T03:47:36.643Z,411.41
2022-10-30T03:48:21.598Z,453.24
2022-10-30T03:49:06.861Z,394.47
2022-10-30T03:49:51.883Z,417.38
2022-10-30T03:50:36.771Z,428.34
2022-10-30T03:51:21.827Z,450.25
2022-10-30T03:52:06.980Z,459.22
2022-10-30T03:52:52.044Z,400.45
2022-10-30T03:53:36.937Z,416.39
2022-10-30T03:54:22.356Z,424.36
2022-10-30T03:55:07.518Z,391.48
2022-10-30T03:55:52.266Z,423.36
2022-10-30T03:56:37.316Z,423.36
2022-10-30T03:57:22.276Z,373.55
2022-10-30T03:58:07.332Z,384.51
2022-10-30T03:58:52.089Z,405.43
2022-10-30T03:59:37.240Z,390.49
2022-10-30T04:00:22.408Z,365.58
2022-10-30T04:01:07.550Z,352.63
2022-10-30T04:01:52.733Z,413.40
2022-10-30T04:02:37.499Z,388.49
2022-10-30T04:03:22.621Z,455.24
2022-10-30T04:04:07.782Z,381.52
2022-10-30T04:04:52.942Z,387.50
2022-10-30T04:05:37.728Z,387.50
2022-10-30T04:06:22.853Z,369.57
2022-10-30T04:07:07.904Z,362.59
2022-10-30T04:07:52.654Z,401.44
2022-10-30T04:08:37.814Z,416.39
2022-10-30T04:09:22.872Z,401.44
2022-10-30T04:10:08.237Z,381.91
2022-10-30T04:10:53.256Z,392.88
2022-10-30T04:11:38.244Z,384.90
2022-10-30T04:12:23.723Z,380.91
2022-10-30T04:13:08.370Z,400.86
2022-10-30T04:13:53.416Z,386.90
2022-10-30T04:14:38.468Z,386.90
2022-10-30T04:15:23.319Z,374.93
2022-10-30T04:16:09.097Z,390.96
2022-10-30T04:16:53.544Z,387.89
2022-10-30T04:17:38.495Z,406.84
2022-10-30T04:18:23.651Z,525.50
2022-10-30T04:19:08.439Z,428.78
2022-10-30T04:19:53.454Z,419.80
2022-10-30T04:20:38.713Z,419.80
2022-10-30T04:21:23.772Z,390.89
2022-10-30T04:22:08.523Z,564.39
2022-10-30T04:22:53.889Z,486.99
2022-10-30T04:23:39.155Z,383.33
2022-10-30T04:24:23.830Z,381.43
2022-10-30T04:25:09.263Z,348.56
2022-10-30T04:25:54.321Z,331.65
2022-10-30T04:26:39.064Z,338.70
2022-10-30T04:27:24.223Z,344.70
2022-10-30T04:28:09.078Z,330.76
2022-10-30T04:28:54.018Z,321.76
2022-10-30T04:29:39.500Z,299.82
2022-10-30T04:30:24.144Z,327.80
2022-10-30T04:31:09.421Z,347.79
2022-10-30T04:31:54.496Z,320.80
2022-10-30T04:32:39.316Z,302.81
2022-10-30T04:33:24.498Z,387.76
2022-10-30T04:34:09.641Z,305.81
2022-10-30T04:34:54.588Z,280.86
2022-10-30T04:35:39.796Z,295.85
2022-10-30T04:36:25.270Z,294.85
2022-10-30T04:37:09.859Z,292.85
2022-10-30T04:37:55.144Z,293.85
2022-10-30T04:38:39.971Z,267.86
2022-10-30T04:39:25.127Z,292.85
2022-10-30T04:40:10.081Z,345.79
2022-10-30T04:40:55.033Z,404.79
2022-10-30T04:41:40.316Z,391.80
2022-10-30T04:42:25.114Z,403.80
2022-10-30T04:43:10.214Z,376.81
2022-10-30T04:43:55.366Z,370.81
2022-10-30T04:44:40.725Z,396.80
2022-10-30T04:45:26.039Z,402.80
2022-10-30T04:46:10.427Z,401.80
2022-10-30T04:46:55.693Z,337.83
2022-10-30T04:47:40.439Z,349.79
2022-10-30T04:48:26.239Z,400.80
2022-10-30T04:49:10.758Z,323.84
2022-10-30T04:49:55.611Z,365.81
2022-10-30T04:50:40.769Z,439.78
2022-10-30T04:51:25.470Z,1037.47
2022-10-30T04:52:10.786Z,1035.47
2022-10-30T04:52:56.040Z,1019.65
2022-10-30T04:53:41.120Z,1003.66
2022-10-30T04:54:26.265Z,991.66
2022-10-30T04:55:11.116Z,988.66
2022-10-30T04:55:56.367Z,977.40
2022-10-30T04:56:41.253Z,966.67
2022-10-30T04:57:26.595Z,996.72
2022-10-30T04:58:11.127Z,990.72
2022-10-30T04:58:56.290Z,981.50
2022-10-30T04:59:41.961Z,1002.72
2022-10-30T05:00:26.553Z,972.73
2022-10-30T05:01:11.707Z,1049.71
2022-10-30T05:01:56.854Z,983.50
2022-10-30T05:02:41.992Z,975.73
2022-10-30T05:03:26.828Z,986.72
2022-10-30T05:04:11.799Z,975.73
2022-10-30T05:04:56.802Z,429.88
2022-10-30T05:05:42.038Z,1003.77
2022-10-30T05:06:27.179Z,983.78
2022-10-30T05:07:12.220Z,978.78
2022-10-30T05:07:57.568Z,981.78
2022-10-30T05:08:42.018Z,977.66
2022-10-30T05:09:27.512Z,969.82
2022-10-30T05:10:12.241Z,1024.71
2022-10-30T05:10:57.301Z,1017.81
2022-10-30T05:11:42.275Z,1001.82
2022-10-30T05:12:27.811Z,993.85
2022-10-30T05:13:12.565Z,981.78
2022-10-30T05:13:57.417Z,977.86
2022-10-30T05:14:42.386Z,974.86
2022-10-30T05:15:27.858Z,762.89
2022-10-30T05:16:12.460Z,987.85
2022-10-30T05:16:57.620Z,984.85
2022-10-30T05:17:42.695Z,992.85
2022-10-30T05:18:27.582Z,998.85
2022-10-30T05:19:12.915Z,1005.85
2022-10-30T05:19:58.037Z,1010.85
2022-10-30T05:20:43.037Z,1010.85
2022-10-30T05:21:28.300Z,1001.85
2022-10-30T05:22:13.036Z,999.85
2022-10-30T05:22:58.096Z,997.85
2022-10-30T05:23:42.954Z,998.85
2022-10-30T05:24:28.122Z,994.91
2022-10-30T05:25:13.162Z,989.91
2022-10-30T05:25:58.175Z,997.91
2022-10-30T05:26:43.427Z,991.91
2022-10-30T05:27:28.428Z,990.91
2022-10-30T05:28:13.310Z,998.91
2022-10-30T05:28:58.442Z,998.91
2022-10-30T05:29:43.503Z,372.96
2022-10-30T05:30:28.760Z,366.97
2022-10-30T05:31:13.639Z,1035.90
2022-10-30T05:31:58.570Z,1005.81
2022-10-30T05:32:43.619Z,999.91
2022-10-30T05:33:28.599Z,1000.91
2022-10-30T05:34:13.530Z,1001.91
2022-10-30T05:34:58.647Z,1001.91
2022-10-30T05:35:43.950Z,1005.91
2022-10-30T05:36:29.004Z,998.91
2022-10-30T05:37:13.855Z,993.91
2022-10-30T05:37:58.766Z,990.91
2022-10-30T05:38:43.751Z,982.85
2022-10-30T05:39:29.249Z,990.85
2022-10-30T05:40:14.085Z,998.85
2022-10-30T05:40:59.141Z,995.85
2022-10-30T05:41:44.096Z,992.85
2022-10-30T05:42:29.351Z,985.78
2022-10-30T05:43:14.262Z,989.85
2022-10-30T05:43:59.027Z,988.77
2022-10-30T05:44:59.741Z,992.85
2022-10-30T05:45:29.629Z,977.86
2022-10-30T05:46:14.330Z,971.86
2022-10-30T05:46:59.347Z,975.86
2022-10-30T05:47:44.359Z,980.85
2022-10-30T05:48:29.710Z,985.91
2022-10-30T05:49:14.562Z,970.86
2022-10-30T05:50:00.537Z,961.86
2022-10-30T05:50:44.571Z,981.91
2022-10-30T05:51:29.931Z,976.91
2022-10-30T05:52:14.799Z,974.86
2022-10-30T05:52:59.638Z,972.86
2022-10-30T05:53:45.099Z,986.85
2022-10-30T05:54:30.155Z,997.85
2022-10-30T05:55:15.110Z,992.85
2022-10-30T05:55:59.965Z,988.85
2022-10-30T05:56:45.123Z,1028.85
2022-10-30T05:57:30.382Z,989.85
2022-10-30T05:58:15.774Z,995.85
2022-10-30T05:59:00.312Z,991.85
2022-10-30T05:59:45.474Z,210.97
2022-10-30T06:00:30.709Z,191.97
2022-10-30T06:01:15.597Z,141.98
2022-10-30T06:02:00.790Z,207.97
2022-10-30T06:02:46.246Z,451.93
2022-10-30T06:03:30.562Z,1036.85
2022-10-30T06:04:15.690Z,1008.85
2022-10-30T06:05:00.735Z,732.89
2022-10-30T06:05:45.724Z,865.87
2022-10-30T06:06:31.009Z,1027.81
2022-10-30T06:07:16.111Z,1012.81
2022-10-30T06:08:00.966Z,1002.82
2022-10-30T06:08:45.915Z,998.82
2022-10-30T06:09:31.165Z,979.82
2022-10-30T06:10:16.442Z,978.82
2022-10-30T06:11:01.203Z,984.82
2022-10-30T06:11:46.245Z,983.82
2022-10-30T06:12:31.508Z,978.82
2022-10-30T06:13:16.877Z,997.85
2022-10-30T06:14:01.315Z,997.85
2022-10-30T06:14:46.752Z,1001.82
2022-10-30T06:15:31.747Z,1001.82
2022-10-30T06:16:16.703Z,1007.81
2022-10-30T06:17:01.759Z,990.72
2022-10-30T06:17:46.698Z,1008.81
2022-10-30T06:18:31.770Z,981.82
2022-10-30T06:19:18.691Z,432.92
2022-10-30T06:20:01.585Z,549.90
2022-10-30T06:20:46.933Z,1031.81
2022-10-30T06:21:32.389Z,1078.80
2022-10-30T06:22:17.040Z,1071.80
2022-10-30T06:23:02.722Z,1077.84
2022-10-30T06:23:47.265Z,1071.80
2022-10-30T06:24:32.100Z,1078.80
2022-10-30T06:25:17.190Z,1067.70
2022-10-30T06:26:02.521Z,1012.81
2022-10-30T06:26:47.085Z,1008.85
2022-10-30T06:27:32.436Z,1006.85
2022-10-30T06:28:17.181Z,1018.85
2022-10-30T06:29:02.135Z,992.85
2022-10-30T06:29:47.085Z,990.85
2022-10-30T06:30:32.471Z,984.91
2022-10-30T06:31:17.659Z,984.91
2022-10-30T06:32:05.733Z,982.91
2022-10-30T06:32:47.516Z,981.91
2022-10-30T06:33:33.296Z,977.91
2022-10-30T06:34:17.839Z,977.91
2022-10-30T06:35:02.483Z,503.95
2022-10-30T06:35:47.536Z,1032.90
2022-10-30T06:36:33.253Z,1053.90
2022-10-30T06:37:17.459Z,1054.84
2022-10-30T06:38:02.916Z,907.91
2022-10-30T06:38:47.708Z,1012.90
2022-10-30T06:39:33.335Z,989.91
2022-10-30T06:40:18.308Z,999.85
2022-10-30T06:41:03.275Z,995.85
2022-10-30T06:41:48.011Z,1008.85
2022-10-30T06:42:35.304Z,1008.85
2022-10-30T06:43:18.412Z,948.86
2022-10-30T06:44:03.300Z,999.85
2022-10-30T06:44:48.394Z,1027.85
2022-10-30T06:45:33.903Z,1051.84
2022-10-30T06:46:18.570Z,1051.84
2022-10-30T06:47:03.793Z,1067.80
2022-10-30T06:47:48.545Z,1067.80
2022-10-30T06:48:33.802Z,1059.80
2022-10-30T06:49:18.662Z,1010.81
2022-10-30T06:50:03.923Z,1004.85
2022-10-30T06:50:48.973Z,1010.85
2022-10-30T06:51:34.140Z,982.85
2022-10-30T06:52:19.119Z,1063.80
2022-10-30T06:53:04.149Z,1067.80
2022-10-30T06:53:49.544Z,1056.70
2022-10-30T06:54:34.324Z,1062.70
2022-10-30T06:55:19.532Z,1039.81
2022-10-30T06:56:04.469Z,1039.81
2022-10-30T06:56:49.436Z,1029.71
2022-10-30T06:57:34.589Z,1023.81
2022-10-30T06:58:19.564Z,1023.81
2022-10-30T06:59:04.737Z,956.82
2022-10-30T06:59:49.606Z,977.82
2022-10-30T07:00:34.818Z,942.83
2022-10-30T07:01:19.705Z,934.74
2022-10-30T07:02:06.979Z,956.82
2022-10-30T07:02:50.084Z,988.72
2022-10-30T07:03:35.146Z,999.82
2022-10-30T07:04:20.092Z,805.85
2022-10-30T07:05:05.176Z,839.85
2022-10-30T07:05:50.007Z,847.84
2022-10-30T07:06:35.377Z,929.83
2022-10-30T07:07:20.226Z,963.73
2022-10-30T07:08:05.269Z,1075.84
2022-10-30T07:08:50.330Z,995.85
2022-10-30T07:09:35.386Z,519.92
2022-10-30T07:10:20.628Z,528.88
2022-10-30T07:11:05.480Z,523.92
2022-10-30T07:11:54.375Z,1021.81
2022-10-30T07:12:35.714Z,1035.85
2022-10-30T07:13:20.669Z,1000.85
2022-10-30T07:14:05.828Z,1000.85
2022-10-30T07:14:50.794Z,992.85
2022-10-30T07:15:35.802Z,956.86
2022-10-30T07:16:20.627Z,983.85
2022-10-30T07:17:05.745Z,1069.84
2022-10-30T07:17:51.017Z,1043.85
2022-10-30T07:18:36.269Z,658.90
2022-10-30T07:19:21.942Z,258.95
2022-10-30T07:20:06.285Z,184.97
2022-10-30T07:20:51.732Z,144.98
2022-10-30T07:21:36.025Z,144.98
2022-10-30T07:22:21.445Z,137.98
2022-10-30T07:23:06.502Z,176.96
2022-10-30T07:23:51.562Z,1020.81
2022-10-30T07:24:36.924Z,999.72
2022-10-30T07:25:21.679Z,978.82
2022-10-30T07:26:06.581Z,978.82
2022-10-30T07:26:51.690Z,1008.81
2022-10-30T07:27:36.685Z,990.82
2022-10-30T07:28:21.701Z,1000.82
2022-10-30T07:29:06.853Z,1000.82
2022-10-30T07:29:51.911Z,1001.82
2022-10-30T07:30:36.965Z,973.82
2022-10-30T07:31:34.817Z,752.86
2022-10-30T07:32:06.959Z,987.45
2022-10-30T07:32:52.041Z,1018.85
2022-10-30T07:33:37.092Z,931.86
2022-10-30T07:34:22.482Z,992.85
2022-10-30T07:35:07.204Z,976.86
2022-10-30T07:35:52.583Z,983.85
2022-10-30T07:36:37.415Z,991.85
2022-10-30T07:37:22.275Z,995.82
2022-10-30T07:38:07.662Z,999.72
2022-10-30T07:38:52.697Z,996.82
2022-10-30T07:39:37.543Z,803.77
2022-10-30T07:40:22.492Z,857.84
2022-10-30T07:41:07.551Z,918.74
2022-10-30T07:41:52.738Z,999.82
2022-10-30T07:42:37.970Z,985.78
2022-10-30T07:43:22.925Z,997.77
2022-10-30T07:44:07.983Z,993.85
2022-10-30T07:44:53.206Z,1075.80
2022-10-30T07:45:38.093Z,978.82
2022-10-30T07:46:23.049Z,261.96
2022-10-30T07:47:08.002Z,178.97
2022-10-30T07:47:53.058Z,196.97
2022-10-30T07:48:38.275Z,193.97
2022-10-30T07:49:23.283Z,212.96
2022-10-30T07:50:08.229Z,199.96
2022-10-30T07:50:53.389Z,215.96
2022-10-30T07:51:38.424Z,271.95
2022-10-30T07:52:23.410Z,201.96
2022-10-30T07:53:08.553Z,270.95
2022-10-30T07:53:53.509Z,1050.81
2022-10-30T07:54:38.565Z,1043.81
2022-10-30T07:55:23.829Z,1028.81
2022-10-30T07:56:08.679Z,1035.81
2022-10-30T07:56:53.639Z,1028.81
2022-10-30T07:57:38.682Z,1027.81
2022-10-30T07:58:23.844Z,1003.82
2022-10-30T07:59:08.900Z,1005.81
2022-10-30T07:59:55.066Z,1000.82
2022-10-30T08:00:38.608Z,578.89
2022-10-30T08:01:24.080Z,641.88
2022-10-30T08:02:08.654Z,1021.81
2022-10-30T08:02:54.064Z,1007.81
2022-10-30T08:03:38.735Z,1013.81
2022-10-30T08:04:24.202Z,1008.81
2022-10-30T08:05:09.355Z,993.82
2022-10-30T08:05:54.353Z,1028.71
2022-10-30T08:06:39.367Z,1030.81
2022-10-30T08:07:24.115Z,1034.71
2022-10-30T08:08:08.968Z,1047.81
2022-10-30T08:08:54.230Z,1034.81
2022-10-30T08:09:39.594Z,1021.81
2022-10-30T08:10:24.648Z,1039.71
2022-10-30T08:11:09.261Z,1028.81
2022-10-30T08:11:54.557Z,1023.71
2022-10-30T08:12:39.857Z,1036.81
2022-10-30T08:13:24.497Z,1042.76
2022-10-30T08:14:10.344Z,1053.76
2022-10-30T08:14:54.786Z,1049.76
2022-10-30T08:15:39.887Z,1041.76
2022-10-30T08:16:25.508Z,1047.76
2022-10-30T08:17:10.054Z,1048.71
2022-10-30T08:17:55.013Z,1048.71
2022-10-30T08:18:39.861Z,1035.71
2022-10-30T08:19:24.915Z,1029.71
2022-10-30T08:20:10.391Z,1029.71
2022-10-30T08:20:55.665Z,1025.71
2022-10-30T08:21:40.329Z,1010.72
2022-10-30T08:22:25.446Z,1015.72
2022-10-30T08:23:10.304Z,1015.72
2022-10-30T08:23:55.763Z,589.83
2022-10-30T08:24:40.727Z,662.81
2022-10-30T08:25:25.782Z,1013.72
2022-10-30T08:26:10.631Z,1008.72
2022-10-30T08:26:55.689Z,996.72
2022-10-30T08:27:40.736Z,999.72
2022-10-30T08:28:29.870Z,999.72
2022-10-30T08:29:10.904Z,964.73
2022-10-30T08:29:55.951Z,987.50
2022-10-30T08:30:40.814Z,1007.77
2022-10-30T08:31:25.832Z,997.66
2022-10-30T08:32:10.878Z,1052.76
2022-10-30T08:32:56.687Z,1068.63
2022-10-30T08:33:41.297Z,1007.77
2022-10-30T08:34:26.360Z,1008.77
2022-10-30T08:35:11.805Z,997.77
2022-10-30T08:35:56.385Z,996.77
2022-10-30T08:36:42.792Z,538.88
2022-10-30T08:37:26.987Z,559.87
2022-10-30T08:38:11.533Z,544.88
2022-10-30T08:38:56.428Z,544.88
2022-10-30T08:39:41.344Z,1001.77
2022-10-30T08:40:26.482Z,464.89
2022-10-30T08:41:11.861Z,449.90
2022-10-30T08:41:56.712Z,499.83
2022-10-30T08:42:41.752Z,463.89
2022-10-30T08:43:26.694Z,477.89
2022-10-30T08:44:12.087Z,534.88
2022-10-30T08:44:57.035Z,534.88
2022-10-30T08:45:42.095Z,687.84
2022-10-30T08:46:27.051Z,749.74
2022-10-30T08:47:12.005Z,752.83
2022-10-30T08:47:57.454Z,728.80
2022-10-30T08:48:42.130Z,830.77
2022-10-30T08:49:27.582Z,754.79
2022-10-30T08:50:12.282Z,676.81
2022-10-30T08:50:57.288Z,664.66
2022-10-30T08:51:42.232Z,666.81
2022-10-30T08:52:27.936Z,762.79
2022-10-30T08:53:12.352Z,791.78
2022-10-30T08:53:57.721Z,834.77
2022-10-30T08:54:42.465Z,1010.49
2022-10-30T08:55:27.950Z,994.72
2022-10-30T08:56:12.737Z,1011.72
2022-10-30T08:56:57.636Z,988.72
2022-10-30T08:57:42.767Z,582.84
2022-10-30T08:58:28.256Z,710.80
2022-10-30T08:59:15.858Z,995.72
2022-10-30T08:59:57.859Z,457.87
2022-10-30T09:00:42.714Z,703.80
2022-10-30T09:01:28.634Z,429.88
2022-10-30T09:02:13.269Z,415.88
2022-10-30T09:02:58.693Z,410.86
2022-10-30T09:03:43.354Z,552.81
2022-10-30T09:04:28.619Z,427.85
2022-10-30T09:05:13.457Z,433.85
2022-10-30T09:05:58.244Z,407.86
2022-10-30T09:06:43.485Z,407.86
2022-10-30T09:07:28.559Z,452.87
2022-10-30T09:08:13.378Z,479.71
2022-10-30T09:08:58.497Z,458.84
2022-10-30T09:09:43.594Z,498.69
2022-10-30T09:10:28.601Z,436.85
2022-10-30T09:11:13.501Z,440.85
2022-10-30T09:11:58.560Z,466.84
2022-10-30T09:12:43.718Z,442.73
2022-10-30T09:13:29.197Z,455.84
2022-10-30T09:14:13.940Z,417.86
2022-10-30T09:14:58.884Z,445.85
2022-10-30T09:15:44.558Z,469.71
2022-10-30T09:16:29.205Z,429.85
2022-10-30T09:17:13.804Z,434.85
2022-10-30T09:17:59.652Z,447.85
2022-10-30T09:18:44.185Z,471.87
2022-10-30T09:19:29.423Z,442.85
2022-10-30T09:20:14.281Z,466.84
2022-10-30T09:21:02.908Z,449.85
2022-10-30T09:21:44.126Z,451.84